Time,TemperatureF,DewpointF,PressureIn,WindDirection,WindDirectionDegrees,WindSpeedMPH,WindSpeedGustMPH,Humidity,HourlyPrecipIn,Conditions,Clouds,dailyrainin,SoftwareType,DateUTC
2013-02-18 00:52:00,53.0,-99.9,30.29,NE,40,14.0,16.0,-999,-99.99,,,-99.99,,2013-02-18 05:52:00,
2013-02-18 01:52:00,53.0,-99.9,30.29,NE,40,15.0,17.0,-999,-99.99,,,-99.99,,2013-02-18 06:52:00,
2013-02-18 02:52:00,52.0,-99.9,30.28,NE,40,16.0,18.0,-999,-99.99,,,-99.99,,2013-02-18 07:52:00,
2013-02-18 03:52:00,52.0,-99.9,30.27,NNE,30,14.0,16.0,-999,-99.99,,,-99.99,,2013-02-18 08:52:00,
2013-02-18 04:52:00,51.0,-99.9,30.26,NE,40,15.0,17.0,-999,-99.99,,,-99.99,,2013-02-18 09:52:00,
2013-02-18 05:53:00,52.0,-99.9,30.26,NNE,30,17.0,21.0,-999,-99.99,,,-99.99,,2013-02-18 10:53:00,
2013-02-18 05:54:00,51.0,-99.9,30.27,NE,40,18.0,21.0,-999,-99.99,,,-99.99,,2013-02-18 10:54:00,
2013-02-18 06:54:00,52.0,-99.9,30.27,NE,40,17.0,21.0,-999,-99.99,,,-99.99,,2013-02-18 11:54:00,
2013-02-18 08:53:00,53.0,-99.9,30.28,NE,40,20.0,23.0,-999,-99.99,,,-99.99,,2013-02-18 13:53:00,
2013-02-18 08:54:00,55.0,-99.9,30.28,NE,40,20.0,22.0,-999,-99.99,,,-99.99,,2013-02-18 13:54:00,
2013-02-18 10:53:00,58.0,-99.9,30.29,NE,50,16.0,20.0,-999,-99.99,,,-99.99,,2013-02-18 15:53:00,
2013-02-18 10:54:00,62.0,-99.9,30.29,ENE,60,14.0,17.0,-999,-99.99,,,-99.99,,2013-02-18 15:54:00,
2013-02-18 12:53:00,65.0,-99.9,30.28,East,90,18.0,22.0,-999,-99.99,,,-99.99,,2013-02-18 17:53:00,
2013-02-18 13:53:00,66.0,-99.9,30.26,East,100,21.0,24.0,-999,-99.99,,,-99.99,,2013-02-18 18:53:00,
2013-02-18 14:53:00,66.0,-99.9,30.23,East,100,20.0,23.0,-999,-99.99,,,-99.99,,2013-02-18 19:53:00,
2013-02-18 15:53:00,67.0,-99.9,30.22,East,100,21.0,24.0,-999,-99.99,,,-99.99,,2013-02-18 20:53:00,
2013-02-18 15:54:00,67.0,-99.9,30.21,East,100,20.0,22.0,-999,-99.99,,,-99.99,,2013-02-18 20:54:00,
2013-02-18 16:54:00,68.0,-99.9,30.22,East,100,18.0,21.0,-999,-99.99,,,-99.99,,2013-02-18 21:54:00,
2013-02-18 17:54:00,68.0,-99.9,30.21,East,100,17.0,20.0,-999,-99.99,,,-99.99,,2013-02-18 22:54:00,
2013-02-18 18:54:00,67.0,-99.9,30.22,East,90,15.0,17.0,-999,-99.99,,,-99.99,,2013-02-18 23:54:00,
2013-02-18 19:54:00,66.0,-99.9,30.21,East,80,13.0,14.0,-999,-99.99,,,-99.99,,2013-02-19 00:54:00,
2013-02-18 20:54:00,66.0,-99.9,30.21,ENE,70,11.0,13.0,-999,-99.99,,,-99.99,,2013-02-19 01:54:00,
2013-02-18 21:54:00,64.0,-99.9,30.21,ENE,60,10.0,13.0,-999,-99.99,,,-99.99,,2013-02-19 02:54:00,
2013-02-18 22:54:00,65.0,-99.9,30.21,ENE,70,11.0,13.0,-999,-99.99,,,-99.99,,2013-02-19 03:54:00,